createdAt,value
2018-04-20T00:01:11.019Z,15.7
2018-04-20T00:11:09.949Z,15.7
2018-04-20T00:21:09.350Z,15.6
2018-04-20T00:31:08.779Z,15.5
2018-04-20T00:41:07.684Z,15.4
2018-04-20T00:51:07.115Z,15.4
2018-04-20T01:01:06.041Z,15.3
2018-04-20T01:11:05.567Z,15.2
2018-04-20T01:21:04.784Z,15.1
2018-04-20T01:31:04.264Z,15.3
2018-04-20T01:41:03.276Z,15.3
2018-04-20T01:51:02.459Z,15.4
2018-04-20T02:01:01.930Z,15.4
2018-04-20T02:11:01.171Z,15.4
2018-04-20T02:21:00.182Z,15.3
2018-04-20T02:30:59.989Z,15.2
2018-04-20T02:40:58.491Z,15.2
2018-04-20T02:50:58.040Z,15.3
2018-04-20T03:00:57.010Z,15.4
2018-04-20T03:10:56.162Z,15.4
2018-04-20T03:20:55.127Z,15.3
2018-04-20T03:30:54.627Z,15.3
2018-04-20T03:40:53.517Z,15.2
2018-04-20T03:50:52.748Z,15.2
2018-04-20T04:00:51.975Z,17.3
2018-04-20T04:10:51.629Z,16.3
2018-04-20T04:20:50.676Z,15.6
2018-04-20T04:30:49.892Z,15.4
2018-04-20T04:40:49.103Z,15.3
2018-04-20T04:50:48.371Z,15.2
2018-04-20T05:00:47.311Z,15.5
2018-04-20T05:10:46.823Z,15.8
2018-04-20T05:20:45.740Z,15.9
2018-04-20T05:30:45.187Z,15.8
2018-04-20T05:40:44.167Z,15.8
2018-04-20T05:50:43.391Z,15.9
2018-04-20T06:00:42.578Z,16.1
2018-04-20T06:10:41.778Z,16.1
2018-04-20T06:20:41.337Z,16.4
2018-04-20T06:30:40.199Z,16.4
2018-04-20T06:40:39.768Z,16.9
2018-04-20T06:50:38.763Z,16.7
2018-04-20T07:00:38.146Z,17.1
2018-04-20T07:10:37.790Z,18.5
2018-04-20T07:20:36.302Z,21.3
2018-04-20T07:30:35.637Z,23.6
2018-04-20T07:40:34.743Z,22.6
2018-04-20T07:50:34.002Z,22.8
2018-04-20T08:00:33.160Z,22.4
2018-04-20T08:10:32.446Z,21
2018-04-20T08:20:31.622Z,20.2
2018-04-20T08:30:30.844Z,19.8
2018-04-20T08:40:30.304Z,21.3
2018-04-20T08:50:29.322Z,22.4
2018-04-20T09:00:28.751Z,24
2018-04-20T09:10:27.968Z,24.3
2018-04-20T09:20:27.187Z,23.4
2018-04-20T09:30:26.281Z,22.3
2018-04-20T09:40:25.963Z,24.2
2018-04-20T09:50:24.526Z,23.4
2018-04-20T10:00:23.792Z,24.1
2018-04-20T10:10:22.969Z,24.3
2018-04-20T10:20:22.608Z,24.4
2018-04-20T10:30:21.729Z,24.9
2018-04-20T10:40:20.608Z,23.9
2018-04-20T10:50:20.136Z,23.1
2018-04-20T11:00:19.049Z,21.8
2018-04-20T11:10:18.316Z,21.8
2018-04-20T11:20:17.591Z,20.9
2018-04-20T11:30:16.697Z,20.4
2018-04-20T11:40:15.908Z,20.1
2018-04-20T11:50:15.410Z,19.9
2018-04-20T12:00:14.366Z,20.1
2018-04-20T12:10:13.604Z,20.3
2018-04-20T12:20:12.818Z,19.6
2018-04-20T12:30:12.094Z,19.3
2018-04-20T12:40:11.487Z,19.1
2018-04-20T12:50:10.472Z,18.6
2018-04-20T13:00:09.940Z,18.6
2018-04-20T13:10:09.458Z,18.6
2018-04-20T13:20:08.077Z,18.6
2018-04-20T13:30:07.339Z,19.1
2018-04-20T13:40:06.499Z,18.6
2018-04-20T13:50:05.731Z,18.1
2018-04-20T14:00:04.935Z,17.8
2018-04-20T14:10:04.542Z,17.9
2018-04-20T14:20:03.980Z,17.8
2018-04-20T14:30:03.494Z,17.8
2018-04-20T14:40:01.980Z,17.8
2018-04-20T14:50:00.995Z,17.8
2018-04-20T15:00:00.552Z,17.7
2018-04-20T15:09:59.762Z,17.5
2018-04-20T15:19:58.779Z,17.4
2018-04-20T15:29:57.849Z,17.2
2018-04-20T15:39:58.232Z,16.9
2018-04-20T15:49:56.309Z,16.8
2018-04-20T15:59:55.794Z,16.7
2018-04-20T16:09:54.713Z,16.6
2018-04-20T16:19:54.055Z,16.4
2018-04-20T16:29:53.281Z,16.3
2018-04-20T16:39:52.400Z,16.1
2018-04-20T16:49:51.854Z,16
2018-04-20T16:59:51.064Z,15.8
2018-04-20T17:09:49.992Z,15.6
2018-04-20T17:19:49.318Z,15.4
2018-04-20T17:29:48.732Z,15.4
2018-04-20T17:39:47.944Z,15.6
2018-04-20T17:49:47.134Z,15.6
2018-04-20T17:59:46.273Z,15.4
2018-04-20T18:09:45.288Z,15.3
2018-04-20T18:19:44.548Z,15.2
2018-04-20T18:29:44.007Z,15.1
2018-04-20T18:39:42.924Z,14.9
2018-04-20T18:49:42.484Z,14.8
2018-04-20T18:59:41.651Z,14.8
2018-04-20T19:09:40.588Z,14.8
2018-04-20T19:19:40.126Z,14.8
2018-04-20T19:29:39.070Z,14.7
2018-04-20T19:39:38.247Z,14.5
2018-04-20T19:49:37.439Z,14.4
2018-04-20T19:59:37.272Z,14.3
2018-04-20T20:09:36.203Z,14.4
2018-04-20T20:19:35.127Z,14.5
2018-04-20T20:29:34.853Z,14.5
2018-04-20T20:39:33.496Z,14.5
2018-04-20T20:49:32.995Z,14.4
2018-04-20T20:59:32.239Z,14.4
2018-04-20T21:09:31.263Z,14.3
2018-04-20T21:19:30.380Z,14.2
2018-04-20T21:29:29.729Z,14.1
2018-04-20T21:39:29.351Z,14.1
2018-04-20T21:49:28.045Z,13.9
2018-04-20T21:59:27.490Z,13.8
2018-04-20T22:09:26.430Z,13.7
2018-04-20T22:19:25.668Z,13.6
2018-04-20T22:29:25.435Z,13.5
2018-04-20T22:39:24.697Z,13.4
2018-04-20T22:49:23.327Z,13.3
2018-04-20T22:59:22.810Z,13.3
2018-04-20T23:09:21.759Z,13.2
2018-04-20T23:19:21.207Z,13
2018-04-20T23:29:20.427Z,12.9
2018-04-20T23:39:19.723Z,12.8
2018-04-20T23:49:19.056Z,12.8
2018-04-20T23:59:17.797Z,12.6
